Terminal Aerodrome Forecast
Issued by NWS Cleveland, OH

Home | Current Version | Previous Version | Graphics & Text | Print | Product List | Glossary Off
Versions: 1 2 3 4 5 6 7 8 9 10 11 12 13 14 15 16 17 18 19 20 21 22 23 24 25 26 27 28 29 30

000
FTUS41 KCLE 010800 AAA
TAFCLE
TAF AMD
KCLE 010815Z 0108/0212 VRB03KT P6SM BKN015
     FM011000 VRB03KT 5SM BR BKN007
      TEMPO 0110/0113 2SM BR OVC007
     FM011400 07005KT P6SM BKN012
     FM011700 04007KT P6SM BKN020
     FM011900 04007KT P6SM BKN035
     FM012200 07005KT P6SM SCT035=

USA.gov is the U.S. government's official web portal to all federal, state and local government web resources and services.